sensor_id;sensor_type;location;lat;lon;timestamp;P1;durP1;ratioP1;P2;durP2;ratioP2
23988;SDS011;12202;52.136;5.592;2022-12-05T00:00:26;116.55;;;46.08;;
23988;SDS011;12202;52.136;5.592;2022-12-05T00:02:52;111.30;;;44.72;;
23988;SDS011;12202;52.136;5.592;2022-12-05T00:05:18;116.22;;;46.38;;
23988;SDS011;12202;52.136;5.592;2022-12-05T00:07:44;115.30;;;47.58;;
23988;SDS011;12202;52.136;5.592;2022-12-05T00:10:10;116.82;;;46.28;;
23988;SDS011;12202;52.136;5.592;2022-12-05T00:12:36;111.32;;;44.50;;
23988;SDS011;12202;52.136;5.592;2022-12-05T00:15:02;116.70;;;45.45;;
23988;SDS011;12202;52.136;5.592;2022-12-05T00:17:30;110.32;;;43.90;;
23988;SDS011;12202;52.136;5.592;2022-12-05T00:19:56;114.97;;;45.75;;
23988;SDS011;12202;52.136;5.592;2022-12-05T00:22:22;115.82;;;46.03;;
23988;SDS011;12202;52.136;5.592;2022-12-05T00:24:48;120.60;;;48.45;;
23988;SDS011;12202;52.136;5.592;2022-12-05T00:27:14;116.65;;;46.25;;
23988;SDS011;12202;52.136;5.592;2022-12-05T00:29:40;107.28;;;45.58;;
23988;SDS011;12202;52.136;5.592;2022-12-05T00:32:06;115.40;;;48.80;;
23988;SDS011;12202;52.136;5.592;2022-12-05T00:34:32;123.03;;;46.15;;
23988;SDS011;12202;52.136;5.592;2022-12-05T00:36:58;110.85;;;45.95;;
23988;SDS011;12202;52.136;5.592;2022-12-05T00:39:24;111.63;;;43.30;;
23988;SDS011;12202;52.136;5.592;2022-12-05T00:41:49;121.00;;;45.92;;
23988;SDS011;12202;52.136;5.592;2022-12-05T00:44:15;114.93;;;44.60;;
23988;SDS011;12202;52.136;5.592;2022-12-05T00:46:41;121.97;;;47.58;;
23988;SDS011;12202;52.136;5.592;2022-12-05T00:49:09;119.70;;;46.55;;
23988;SDS011;12202;52.136;5.592;2022-12-05T00:51:36;113.50;;;44.50;;
23988;SDS011;12202;52.136;5.592;2022-12-05T00:54:04;109.10;;;45.97;;
23988;SDS011;12202;52.136;5.592;2022-12-05T00:56:31;118.93;;;48.38;;
23988;SDS011;12202;52.136;5.592;2022-12-05T00:58:57;116.20;;;47.40;;
23988;SDS011;12202;52.136;5.592;2022-12-05T01:01:24;117.57;;;45.08;;
23988;SDS011;12202;52.136;5.592;2022-12-05T01:03:52;126.55;;;48.42;;
23988;SDS011;12202;52.136;5.592;2022-12-05T01:06:18;118.93;;;47.97;;
23988;SDS011;12202;52.136;5.592;2022-12-05T01:08:44;115.13;;;49.20;;
23988;SDS011;12202;52.136;5.592;2022-12-05T01:11:11;130.50;;;50.33;;
23988;SDS011;12202;52.136;5.592;2022-12-05T01:13:38;116.00;;;46.85;;
23988;SDS011;12202;52.136;5.592;2022-12-05T01:16:05;126.05;;;48.70;;
23988;SDS011;12202;52.136;5.592;2022-12-05T01:18:31;105.70;;;45.45;;
23988;SDS011;12202;52.136;5.592;2022-12-05T01:20:57;116.25;;;45.58;;
23988;SDS011;12202;52.136;5.592;2022-12-05T01:23:23;131.13;;;48.13;;
23988;SDS011;12202;52.136;5.592;2022-12-05T01:25:50;123.45;;;48.05;;
23988;SDS011;12202;52.136;5.592;2022-12-05T01:28:16;123.22;;;47.17;;
23988;SDS011;12202;52.136;5.592;2022-12-05T01:30:43;120.00;;;46.72;;
23988;SDS011;12202;52.136;5.592;2022-12-05T01:33:09;119.45;;;46.38;;
23988;SDS011;12202;52.136;5.592;2022-12-05T01:35:36;108.88;;;47.17;;
23988;SDS011;12202;52.136;5.592;2022-12-05T01:38:03;119.70;;;47.88;;
23988;SDS011;12202;52.136;5.592;2022-12-05T01:40:29;119.60;;;47.83;;
23988;SDS011;12202;52.136;5.592;2022-12-05T01:42:55;116.75;;;47.67;;
23988;SDS011;12202;52.136;5.592;2022-12-05T01:45:33;117.85;;;46.38;;
23988;SDS011;12202;52.136;5.592;2022-12-05T01:48:01;130.25;;;47.60;;
23988;SDS011;12202;52.136;5.592;2022-12-05T01:50:28;116.75;;;45.42;;
23988;SDS011;12202;52.136;5.592;2022-12-05T01:52:54;113.72;;;45.53;;
23988;SDS011;12202;52.136;5.592;2022-12-05T01:55:20;119.00;;;47.40;;
23988;SDS011;12202;52.136;5.592;2022-12-05T01:57:46;114.57;;;45.70;;
23988;SDS011;12202;52.136;5.592;2022-12-05T02:00:13;122.20;;;48.60;;
23988;SDS011;12202;52.136;5.592;2022-12-05T02:03:03;121.20;;;48.45;;
23988;SDS011;12202;52.136;5.592;2022-12-05T02:05:27;120.78;;;46.33;;
23988;SDS011;12202;52.136;5.592;2022-12-05T02:07:53;119.10;;;46.92;;
23988;SDS011;12202;52.136;5.592;2022-12-05T02:10:19;116.07;;;46.13;;
23988;SDS011;12202;52.136;5.592;2022-12-05T02:12:45;104.30;;;43.92;;
23988;SDS011;12202;52.136;5.592;2022-12-05T02:17:56;112.32;;;44.38;;
23988;SDS011;12202;52.136;5.592;2022-12-05T02:26:16;109.43;;;44.63;;
23988;SDS011;12202;52.136;5.592;2022-12-05T02:31:15;119.80;;;46.78;;
23988;SDS011;12202;52.136;5.592;2022-12-05T02:33:46;117.90;;;44.35;;
23988;SDS011;12202;52.136;5.592;2022-12-05T02:36:30;114.53;;;44.80;;
23988;SDS011;12202;52.136;5.592;2022-12-05T02:39:00;110.85;;;43.20;;
23988;SDS011;12202;52.136;5.592;2022-12-05T02:41:31;119.97;;;46.08;;
23988;SDS011;12202;52.136;5.592;2022-12-05T02:44:02;113.25;;;43.80;;
23988;SDS011;12202;52.136;5.592;2022-12-05T02:46:30;115.85;;;43.20;;
23988;SDS011;12202;52.136;5.592;2022-12-05T02:48:59;111.90;;;44.13;;
23988;SDS011;12202;52.136;5.592;2022-12-05T02:51:26;109.47;;;42.85;;
23988;SDS011;12202;52.136;5.592;2022-12-05T02:53:53;102.78;;;41.70;;
23988;SDS011;12202;52.136;5.592;2022-12-05T02:56:22;110.30;;;41.55;;
23988;SDS011;12202;52.136;5.592;2022-12-05T02:58:52;108.97;;;43.67;;
23988;SDS011;12202;52.136;5.592;2022-12-05T03:01:19;107.43;;;41.85;;
23988;SDS011;12202;52.136;5.592;2022-12-05T03:03:46;93.70;;;37.67;;
23988;SDS011;12202;52.136;5.592;2022-12-05T03:06:13;98.50;;;39.13;;
23988;SDS011;12202;52.136;5.592;2022-12-05T03:08:41;97.93;;;39.67;;
23988;SDS011;12202;52.136;5.592;2022-12-05T03:11:09;104.10;;;41.28;;
23988;SDS011;12202;52.136;5.592;2022-12-05T03:13:40;105.65;;;41.88;;
23988;SDS011;12202;52.136;5.592;2022-12-05T03:16:09;104.85;;;41.97;;
23988;SDS011;12202;52.136;5.592;2022-12-05T03:18:42;91.93;;;39.70;;
23988;SDS011;12202;52.136;5.592;2022-12-05T03:23:41;101.63;;;40.47;;
23988;SDS011;12202;52.136;5.592;2022-12-05T03:31:24;97.43;;;40.45;;
23988;SDS011;12202;52.136;5.592;2022-12-05T03:33:56;89.78;;;36.60;;
23988;SDS011;12202;52.136;5.592;2022-12-05T03:36:27;102.88;;;41.15;;
23988;SDS011;12202;52.136;5.592;2022-12-05T03:38:56;96.82;;;39.10;;
23988;SDS011;12202;52.136;5.592;2022-12-05T03:41:34;100.55;;;40.20;;
23988;SDS011;12202;52.136;5.592;2022-12-05T03:46:55;97.18;;;40.08;;
23988;SDS011;12202;52.136;5.592;2022-12-05T03:49:20;85.53;;;37.30;;
23988;SDS011;12202;52.136;5.592;2022-12-05T03:52:01;90.88;;;38.08;;
23988;SDS011;12202;52.136;5.592;2022-12-05T03:54:31;92.68;;;37.92;;
23988;SDS011;12202;52.136;5.592;2022-12-05T03:57:02;84.07;;;38.25;;
23988;SDS011;12202;52.136;5.592;2022-12-05T04:01:59;89.05;;;38.65;;
23988;SDS011;12202;52.136;5.592;2022-12-05T04:04:41;90.65;;;38.25;;
23988;SDS011;12202;52.136;5.592;2022-12-05T04:07:10;96.70;;;37.88;;
23988;SDS011;12202;52.136;5.592;2022-12-05T04:09:44;91.00;;;38.88;;
23988;SDS011;12202;52.136;5.592;2022-12-05T04:12:13;91.55;;;38.83;;
23988;SDS011;12202;52.136;5.592;2022-12-05T04:14:44;94.03;;;36.85;;
23988;SDS011;12202;52.136;5.592;2022-12-05T04:17:58;90.40;;;38.35;;
23988;SDS011;12202;52.136;5.592;2022-12-05T04:19:59;90.43;;;38.50;;
23988;SDS011;12202;52.136;5.592;2022-12-05T04:22:45;98.57;;;39.10;;
23988;SDS011;12202;52.136;5.592;2022-12-05T04:25:12;92.45;;;38.08;;
23988;SDS011;12202;52.136;5.592;2022-12-05T04:31:05;93.15;;;38.97;;
23988;SDS011;12202;52.136;5.592;2022-12-05T04:33:34;91.10;;;38.50;;
23988;SDS011;12202;52.136;5.592;2022-12-05T04:36:06;98.00;;;39.30;;
23988;SDS011;12202;52.136;5.592;2022-12-05T04:38:48;93.15;;;38.03;;
23988;SDS011;12202;52.136;5.592;2022-12-05T04:41:16;94.75;;;40.13;;
23988;SDS011;12202;52.136;5.592;2022-12-05T04:43:44;87.93;;;36.85;;
23988;SDS011;12202;52.136;5.592;2022-12-05T04:46:12;91.68;;;39.38;;
23988;SDS011;12202;52.136;5.592;2022-12-05T04:48:40;93.10;;;38.33;;
23988;SDS011;12202;52.136;5.592;2022-12-05T04:51:07;86.40;;;35.22;;
23988;SDS011;12202;52.136;5.592;2022-12-05T04:53:37;95.68;;;37.30;;
23988;SDS011;12202;52.136;5.592;2022-12-05T04:56:04;88.80;;;37.47;;
23988;SDS011;12202;52.136;5.592;2022-12-05T04:58:30;93.45;;;37.53;;
23988;SDS011;12202;52.136;5.592;2022-12-05T05:01:11;84.55;;;35.40;;
23988;SDS011;12202;52.136;5.592;2022-12-05T05:06:04;81.13;;;37.35;;
23988;SDS011;12202;52.136;5.592;2022-12-05T05:08:31;89.47;;;35.67;;
23988;SDS011;12202;52.136;5.592;2022-12-05T05:11:17;84.28;;;36.85;;
23988;SDS011;12202;52.136;5.592;2022-12-05T05:13:43;84.00;;;36.33;;
23988;SDS011;12202;52.136;5.592;2022-12-05T05:19:02;90.13;;;37.22;;
23988;SDS011;12202;52.136;5.592;2022-12-05T05:21:29;90.47;;;37.65;;
23988;SDS011;12202;52.136;5.592;2022-12-05T05:23:56;90.18;;;40.28;;
23988;SDS011;12202;52.136;5.592;2022-12-05T05:26:22;88.13;;;37.97;;
23988;SDS011;12202;52.136;5.592;2022-12-05T05:28:49;86.13;;;37.90;;
23988;SDS011;12202;52.136;5.592;2022-12-05T05:31:15;96.13;;;37.28;;
23988;SDS011;12202;52.136;5.592;2022-12-05T05:33:41;95.10;;;39.42;;
23988;SDS011;12202;52.136;5.592;2022-12-05T05:36:11;90.65;;;38.60;;
23988;SDS011;12202;52.136;5.592;2022-12-05T05:38:42;91.95;;;37.92;;
23988;SDS011;12202;52.136;5.592;2022-12-05T05:41:28;87.97;;;36.25;;
23988;SDS011;12202;52.136;5.592;2022-12-05T05:43:54;85.47;;;37.03;;
23988;SDS011;12202;52.136;5.592;2022-12-05T05:46:21;111.38;;;47.10;;
23988;SDS011;12202;52.136;5.592;2022-12-05T05:48:47;103.72;;;46.40;;
23988;SDS011;12202;52.136;5.592;2022-12-05T05:51:14;91.85;;;37.70;;
23988;SDS011;12202;52.136;5.592;2022-12-05T05:53:41;89.57;;;38.65;;
23988;SDS011;12202;52.136;5.592;2022-12-05T05:56:08;96.10;;;38.67;;
23988;SDS011;12202;52.136;5.592;2022-12-05T05:58:34;84.57;;;38.05;;
23988;SDS011;12202;52.136;5.592;2022-12-05T06:01:18;93.20;;;38.90;;
23988;SDS011;12202;52.136;5.592;2022-12-05T06:03:45;95.32;;;36.97;;
23988;SDS011;12202;52.136;5.592;2022-12-05T06:06:11;85.50;;;38.95;;
23988;SDS011;12202;52.136;5.592;2022-12-05T06:08:38;96.65;;;39.15;;
23988;SDS011;12202;52.136;5.592;2022-12-05T06:11:05;91.57;;;37.75;;
23988;SDS011;12202;52.136;5.592;2022-12-05T06:13:31;97.15;;;37.88;;
23988;SDS011;12202;52.136;5.592;2022-12-05T06:15:57;93.97;;;39.50;;
23988;SDS011;12202;52.136;5.592;2022-12-05T06:18:23;90.68;;;37.05;;
23988;SDS011;12202;52.136;5.592;2022-12-05T06:20:52;97.20;;;38.53;;
23988;SDS011;12202;52.136;5.592;2022-12-05T06:23:18;92.25;;;39.13;;
23988;SDS011;12202;52.136;5.592;2022-12-05T06:25:48;96.20;;;40.55;;
23988;SDS011;12202;52.136;5.592;2022-12-05T06:28:14;91.97;;;38.28;;
23988;SDS011;12202;52.136;5.592;2022-12-05T06:30:40;100.03;;;40.67;;
23988;SDS011;12202;52.136;5.592;2022-12-05T06:33:06;97.47;;;39.63;;
23988;SDS011;12202;52.136;5.592;2022-12-05T06:35:32;95.32;;;38.05;;
23988;SDS011;12202;52.136;5.592;2022-12-05T06:37:58;94.07;;;39.53;;
23988;SDS011;12202;52.136;5.592;2022-12-05T06:40:24;98.60;;;39.65;;
23988;SDS011;12202;52.136;5.592;2022-12-05T06:42:50;99.72;;;38.58;;
23988;SDS011;12202;52.136;5.592;2022-12-05T06:45:16;104.82;;;40.90;;
23988;SDS011;12202;52.136;5.592;2022-12-05T06:47:42;101.88;;;39.95;;
23988;SDS011;12202;52.136;5.592;2022-12-05T06:50:09;91.75;;;37.05;;
23988;SDS011;12202;52.136;5.592;2022-12-05T06:52:35;90.53;;;37.67;;
23988;SDS011;12202;52.136;5.592;2022-12-05T06:55:01;94.18;;;38.55;;
23988;SDS011;12202;52.136;5.592;2022-12-05T06:57:27;99.50;;;40.95;;
23988;SDS011;12202;52.136;5.592;2022-12-05T06:59:53;109.15;;;40.00;;
23988;SDS011;12202;52.136;5.592;2022-12-05T07:02:45;98.57;;;38.92;;
23988;SDS011;12202;52.136;5.592;2022-12-05T07:05:11;101.50;;;39.92;;
23988;SDS011;12202;52.136;5.592;2022-12-05T07:07:37;93.45;;;38.85;;
23988;SDS011;12202;52.136;5.592;2022-12-05T07:10:04;101.55;;;40.10;;
23988;SDS011;12202;52.136;5.592;2022-12-05T07:12:31;92.22;;;37.83;;
23988;SDS011;12202;52.136;5.592;2022-12-05T07:14:59;88.97;;;37.60;;
23988;SDS011;12202;52.136;5.592;2022-12-05T07:17:25;91.63;;;35.78;;
23988;SDS011;12202;52.136;5.592;2022-12-05T07:19:53;85.65;;;36.92;;
23988;SDS011;12202;52.136;5.592;2022-12-05T07:22:19;91.03;;;36.95;;
23988;SDS011;12202;52.136;5.592;2022-12-05T07:24:46;88.22;;;37.80;;
23988;SDS011;12202;52.136;5.592;2022-12-05T07:27:12;89.43;;;36.78;;
23988;SDS011;12202;52.136;5.592;2022-12-05T07:29:39;83.90;;;35.78;;
23988;SDS011;12202;52.136;5.592;2022-12-05T07:32:07;90.65;;;36.95;;
23988;SDS011;12202;52.136;5.592;2022-12-05T07:34:33;94.28;;;37.30;;
23988;SDS011;12202;52.136;5.592;2022-12-05T07:36:59;81.65;;;34.50;;
23988;SDS011;12202;52.136;5.592;2022-12-05T07:39:25;90.68;;;35.58;;
23988;SDS011;12202;52.136;5.592;2022-12-05T07:41:52;89.75;;;36.97;;
23988;SDS011;12202;52.136;5.592;2022-12-05T07:44:17;93.45;;;36.05;;
23988;SDS011;12202;52.136;5.592;2022-12-05T07:46:43;86.82;;;35.90;;
23988;SDS011;12202;52.136;5.592;2022-12-05T07:49:09;86.70;;;35.30;;
23988;SDS011;12202;52.136;5.592;2022-12-05T07:51:36;77.05;;;32.83;;
23988;SDS011;12202;52.136;5.592;2022-12-05T07:54:02;89.35;;;36.15;;
23988;SDS011;12202;52.136;5.592;2022-12-05T07:56:28;85.10;;;35.97;;
23988;SDS011;12202;52.136;5.592;2022-12-05T07:58:54;89.05;;;35.75;;
23988;SDS011;12202;52.136;5.592;2022-12-05T08:01:21;81.05;;;34.55;;
23988;SDS011;12202;52.136;5.592;2022-12-05T08:03:48;84.07;;;34.47;;
23988;SDS011;12202;52.136;5.592;2022-12-05T08:06:15;79.93;;;33.13;;
23988;SDS011;12202;52.136;5.592;2022-12-05T08:08:43;82.55;;;33.75;;
23988;SDS011;12202;52.136;5.592;2022-12-05T08:11:12;83.80;;;34.00;;
23988;SDS011;12202;52.136;5.592;2022-12-05T08:13:39;77.93;;;33.08;;
23988;SDS011;12202;52.136;5.592;2022-12-05T08:16:06;78.53;;;33.25;;
23988;SDS011;12202;52.136;5.592;2022-12-05T08:18:32;86.82;;;35.15;;
23988;SDS011;12202;52.136;5.592;2022-12-05T08:21:00;82.32;;;34.67;;
23988;SDS011;12202;52.136;5.592;2022-12-05T08:23:27;83.00;;;36.03;;
23988;SDS011;12202;52.136;5.592;2022-12-05T08:25:53;79.28;;;34.45;;
23988;SDS011;12202;52.136;5.592;2022-12-05T08:28:19;79.78;;;33.50;;
23988;SDS011;12202;52.136;5.592;2022-12-05T08:30:45;79.35;;;32.92;;
23988;SDS011;12202;52.136;5.592;2022-12-05T08:33:11;82.40;;;34.15;;
23988;SDS011;12202;52.136;5.592;2022-12-05T08:35:37;85.97;;;34.08;;
23988;SDS011;12202;52.136;5.592;2022-12-05T08:38:03;83.55;;;35.95;;
23988;SDS011;12202;52.136;5.592;2022-12-05T08:40:29;78.00;;;32.03;;
23988;SDS011;12202;52.136;5.592;2022-12-05T08:42:55;79.20;;;33.38;;
23988;SDS011;12202;52.136;5.592;2022-12-05T08:45:22;76.78;;;34.53;;
23988;SDS011;12202;52.136;5.592;2022-12-05T08:47:48;75.15;;;32.65;;
23988;SDS011;12202;52.136;5.592;2022-12-05T08:50:14;84.88;;;35.05;;
23988;SDS011;12202;52.136;5.592;2022-12-05T08:52:40;79.00;;;33.90;;
23988;SDS011;12202;52.136;5.592;2022-12-05T08:55:06;81.47;;;34.10;;
23988;SDS011;12202;52.136;5.592;2022-12-05T08:57:32;73.80;;;31.90;;
23988;SDS011;12202;52.136;5.592;2022-12-05T08:59:58;76.97;;;33.08;;
23988;SDS011;12202;52.136;5.592;2022-12-05T09:02:24;73.45;;;32.15;;
23988;SDS011;12202;52.136;5.592;2022-12-05T09:04:51;73.05;;;31.98;;
23988;SDS011;12202;52.136;5.592;2022-12-05T09:07:17;76.93;;;32.35;;
23988;SDS011;12202;52.136;5.592;2022-12-05T09:09:43;69.28;;;32.25;;
23988;SDS011;12202;52.136;5.592;2022-12-05T09:12:09;69.38;;;29.73;;
23988;SDS011;12202;52.136;5.592;2022-12-05T09:14:36;64.60;;;29.20;;
23988;SDS011;12202;52.136;5.592;2022-12-05T09:17:01;63.80;;;30.50;;
23988;SDS011;12202;52.136;5.592;2022-12-05T09:19:28;71.35;;;31.40;;
23988;SDS011;12202;52.136;5.592;2022-12-05T09:21:54;77.43;;;34.88;;
23988;SDS011;12202;52.136;5.592;2022-12-05T09:24:21;77.10;;;33.47;;
23988;SDS011;12202;52.136;5.592;2022-12-05T09:26:47;68.65;;;31.92;;
23988;SDS011;12202;52.136;5.592;2022-12-05T09:29:13;77.68;;;32.50;;
23988;SDS011;12202;52.136;5.592;2022-12-05T09:31:39;68.78;;;31.98;;
23988;SDS011;12202;52.136;5.592;2022-12-05T09:34:07;72.80;;;31.92;;
23988;SDS011;12202;52.136;5.592;2022-12-05T09:36:33;72.30;;;33.13;;
23988;SDS011;12202;52.136;5.592;2022-12-05T09:39:03;74.18;;;31.08;;
23988;SDS011;12202;52.136;5.592;2022-12-05T09:41:49;65.22;;;28.85;;
23988;SDS011;12202;52.136;5.592;2022-12-05T09:47:01;61.53;;;28.48;;
23988;SDS011;12202;52.136;5.592;2022-12-05T09:49:28;60.53;;;29.33;;
23988;SDS011;12202;52.136;5.592;2022-12-05T09:51:55;60.00;;;28.95;;
23988;SDS011;12202;52.136;5.592;2022-12-05T09:54:23;58.88;;;27.40;;
23988;SDS011;12202;52.136;5.592;2022-12-05T09:56:49;59.47;;;27.38;;
23988;SDS011;12202;52.136;5.592;2022-12-05T09:59:17;59.17;;;28.45;;
23988;SDS011;12202;52.136;5.592;2022-12-05T10:12:15;61.80;;;29.00;;
23988;SDS011;12202;52.136;5.592;2022-12-05T10:17:26;57.67;;;27.75;;
23988;SDS011;12202;52.136;5.592;2022-12-05T10:19:52;57.67;;;26.83;;
23988;SDS011;12202;52.136;5.592;2022-12-05T10:22:24;55.97;;;27.15;;
23988;SDS011;12202;52.136;5.592;2022-12-05T10:24:53;56.05;;;28.15;;
23988;SDS011;12202;52.136;5.592;2022-12-05T10:27:37;57.38;;;27.02;;
23988;SDS011;12202;52.136;5.592;2022-12-05T10:30:16;52.33;;;27.25;;
23988;SDS011;12202;52.136;5.592;2022-12-05T10:32:48;52.00;;;27.35;;
23988;SDS011;12202;52.136;5.592;2022-12-05T10:35:16;51.00;;;26.42;;
23988;SDS011;12202;52.136;5.592;2022-12-05T10:37:44;49.00;;;26.25;;
23988;SDS011;12202;52.136;5.592;2022-12-05T10:40:11;54.83;;;28.92;;
23988;SDS011;12202;52.136;5.592;2022-12-05T10:42:37;53.25;;;26.85;;
23988;SDS011;12202;52.136;5.592;2022-12-05T10:45:05;54.90;;;27.00;;
23988;SDS011;12202;52.136;5.592;2022-12-05T10:47:32;50.75;;;26.45;;
23988;SDS011;12202;52.136;5.592;2022-12-05T10:50:06;48.28;;;26.85;;
23988;SDS011;12202;52.136;5.592;2022-12-05T10:52:32;53.92;;;28.40;;
23988;SDS011;12202;52.136;5.592;2022-12-05T10:55:01;52.63;;;26.75;;
23988;SDS011;12202;52.136;5.592;2022-12-05T10:57:28;59.17;;;27.35;;
23988;SDS011;12202;52.136;5.592;2022-12-05T10:59:55;50.58;;;26.30;;
23988;SDS011;12202;52.136;5.592;2022-12-05T11:02:24;50.80;;;27.25;;
23988;SDS011;12202;52.136;5.592;2022-12-05T11:07:32;52.97;;;26.52;;
23988;SDS011;12202;52.136;5.592;2022-12-05T11:09:59;45.33;;;24.52;;
23988;SDS011;12202;52.136;5.592;2022-12-05T11:12:40;44.17;;;24.05;;
23988;SDS011;12202;52.136;5.592;2022-12-05T11:15:19;41.33;;;21.98;;
23988;SDS011;12202;52.136;5.592;2022-12-05T11:20:51;32.58;;;17.55;;
23988;SDS011;12202;52.136;5.592;2022-12-05T11:23:22;32.25;;;18.30;;
23988;SDS011;12202;52.136;5.592;2022-12-05T11:25:48;26.65;;;16.20;;
23988;SDS011;12202;52.136;5.592;2022-12-05T11:33:21;25.90;;;13.68;;
23988;SDS011;12202;52.136;5.592;2022-12-05T11:35:48;24.70;;;13.95;;
23988;SDS011;12202;52.136;5.592;2022-12-05T11:38:15;24.65;;;13.77;;
23988;SDS011;12202;52.136;5.592;2022-12-05T11:48:40;20.20;;;10.93;;
23988;SDS011;12202;52.136;5.592;2022-12-05T11:53:53;19.15;;;10.80;;
23988;SDS011;12202;52.136;5.592;2022-12-05T11:56:34;20.33;;;11.60;;
23988;SDS011;12202;52.136;5.592;2022-12-05T11:59:22;16.42;;;10.20;;
23988;SDS011;12202;52.136;5.592;2022-12-05T12:02:11;19.58;;;10.50;;
23988;SDS011;12202;52.136;5.592;2022-12-05T12:10:42;22.92;;;9.65;;
23988;SDS011;12202;52.136;5.592;2022-12-05T12:13:39;16.27;;;8.63;;
23988;SDS011;12202;52.136;5.592;2022-12-05T12:21:03;16.75;;;8.70;;
23988;SDS011;12202;52.136;5.592;2022-12-05T12:35:09;24.83;;;12.57;;
23988;SDS011;12202;52.136;5.592;2022-12-05T12:47:47;16.33;;;9.52;;
23988;SDS011;12202;52.136;5.592;2022-12-05T12:50:22;13.75;;;7.50;;
23988;SDS011;12202;52.136;5.592;2022-12-05T12:53:03;14.90;;;8.18;;
23988;SDS011;12202;52.136;5.592;2022-12-05T12:58:36;17.10;;;6.97;;
23988;SDS011;12202;52.136;5.592;2022-12-05T13:03:40;14.07;;;7.40;;
23988;SDS011;12202;52.136;5.592;2022-12-05T13:06:28;13.88;;;7.10;;
23988;SDS011;12202;52.136;5.592;2022-12-05T13:09:00;13.73;;;6.85;;
23988;SDS011;12202;52.136;5.592;2022-12-05T13:11:28;15.63;;;7.93;;
23988;SDS011;12202;52.136;5.592;2022-12-05T13:13:55;12.57;;;7.63;;
23988;SDS011;12202;52.136;5.592;2022-12-05T13:16:23;12.50;;;7.25;;
23988;SDS011;12202;52.136;5.592;2022-12-05T13:18:50;14.68;;;8.23;;
23988;SDS011;12202;52.136;5.592;2022-12-05T13:21:16;14.40;;;7.38;;
23988;SDS011;12202;52.136;5.592;2022-12-05T13:23:48;16.98;;;8.00;;
23988;SDS011;12202;52.136;5.592;2022-12-05T13:26:14;16.38;;;7.95;;
23988;SDS011;12202;52.136;5.592;2022-12-05T13:28:52;12.05;;;7.63;;
23988;SDS011;12202;52.136;5.592;2022-12-05T13:31:32;13.75;;;7.07;;
23988;SDS011;12202;52.136;5.592;2022-12-05T13:33:58;15.75;;;8.82;;
23988;SDS011;12202;52.136;5.592;2022-12-05T13:36:24;16.42;;;8.80;;
23988;SDS011;12202;52.136;5.592;2022-12-05T13:41:57;17.77;;;8.73;;
23988;SDS011;12202;52.136;5.592;2022-12-05T13:56:03;15.80;;;8.27;;
23988;SDS011;12202;52.136;5.592;2022-12-05T14:06:12;15.88;;;7.93;;
23988;SDS011;12202;52.136;5.592;2022-12-05T14:08:58;12.70;;;7.30;;
23988;SDS011;12202;52.136;5.592;2022-12-05T14:11:24;16.55;;;8.38;;
23988;SDS011;12202;52.136;5.592;2022-12-05T14:13:50;14.32;;;8.55;;
23988;SDS011;12202;52.136;5.592;2022-12-05T14:18:52;15.65;;;8.43;;
23988;SDS011;12202;52.136;5.592;2022-12-05T14:34:24;15.40;;;8.60;;
23988;SDS011;12202;52.136;5.592;2022-12-05T14:36:52;13.77;;;7.78;;
23988;SDS011;12202;52.136;5.592;2022-12-05T14:39:19;13.32;;;8.25;;
23988;SDS011;12202;52.136;5.592;2022-12-05T14:41:45;15.75;;;9.02;;
23988;SDS011;12202;52.136;5.592;2022-12-05T14:44:15;18.10;;;8.32;;
23988;SDS011;12202;52.136;5.592;2022-12-05T14:46:42;15.70;;;9.35;;
23988;SDS011;12202;52.136;5.592;2022-12-05T14:51:55;12.80;;;7.82;;
23988;SDS011;12202;52.136;5.592;2022-12-05T14:54:22;13.93;;;8.02;;
23988;SDS011;12202;52.136;5.592;2022-12-05T14:56:52;16.20;;;8.48;;
23988;SDS011;12202;52.136;5.592;2022-12-05T14:59:58;13.10;;;8.23;;
23988;SDS011;12202;52.136;5.592;2022-12-05T15:02:19;14.23;;;7.95;;
23988;SDS011;12202;52.136;5.592;2022-12-05T15:04:57;15.32;;;8.25;;
23988;SDS011;12202;52.136;5.592;2022-12-05T15:07:37;12.88;;;8.18;;
23988;SDS011;12202;52.136;5.592;2022-12-05T15:10:04;13.15;;;7.35;;
23988;SDS011;12202;52.136;5.592;2022-12-05T15:12:39;13.60;;;8.23;;
23988;SDS011;12202;52.136;5.592;2022-12-05T15:20:28;14.68;;;9.20;;
23988;SDS011;12202;52.136;5.592;2022-12-05T15:22:57;16.40;;;8.70;;
23988;SDS011;12202;52.136;5.592;2022-12-05T15:25:28;17.15;;;8.25;;
23988;SDS011;12202;52.136;5.592;2022-12-05T15:27:56;13.93;;;8.25;;
23988;SDS011;12202;52.136;5.592;2022-12-05T15:30:22;17.88;;;9.40;;
23988;SDS011;12202;52.136;5.592;2022-12-05T15:32:48;20.92;;;9.45;;
23988;SDS011;12202;52.136;5.592;2022-12-05T15:35:14;13.77;;;8.07;;
23988;SDS011;12202;52.136;5.592;2022-12-05T15:37:48;16.58;;;8.88;;
23988;SDS011;12202;52.136;5.592;2022-12-05T15:40:19;16.77;;;9.93;;
23988;SDS011;12202;52.136;5.592;2022-12-05T15:42:49;18.40;;;8.85;;
23988;SDS011;12202;52.136;5.592;2022-12-05T15:45:17;15.75;;;8.88;;
23988;SDS011;12202;52.136;5.592;2022-12-05T15:50:26;20.00;;;8.45;;
23988;SDS011;12202;52.136;5.592;2022-12-05T15:53:38;16.30;;;9.57;;
23988;SDS011;12202;52.136;5.592;2022-12-05T15:55:45;13.25;;;8.90;;
23988;SDS011;12202;52.136;5.592;2022-12-05T15:58:25;14.02;;;9.68;;
23988;SDS011;12202;52.136;5.592;2022-12-05T16:00:57;22.48;;;11.82;;
23988;SDS011;12202;52.136;5.592;2022-12-05T16:05:53;37.65;;;20.92;;
23988;SDS011;12202;52.136;5.592;2022-12-05T16:08:20;41.17;;;22.25;;
23988;SDS011;12202;52.136;5.592;2022-12-05T16:10:48;39.13;;;18.90;;
23988;SDS011;12202;52.136;5.592;2022-12-05T16:13:14;25.70;;;14.63;;
23988;SDS011;12202;52.136;5.592;2022-12-05T16:15:48;21.80;;;10.88;;
23988;SDS011;12202;52.136;5.592;2022-12-05T16:18:26;19.58;;;10.15;;
23988;SDS011;12202;52.136;5.592;2022-12-05T16:20:52;15.80;;;9.80;;
23988;SDS011;12202;52.136;5.592;2022-12-05T16:23:23;23.33;;;10.93;;
23988;SDS011;12202;52.136;5.592;2022-12-05T16:25:50;17.65;;;10.60;;
23988;SDS011;12202;52.136;5.592;2022-12-05T16:28:16;21.73;;;10.70;;
23988;SDS011;12202;52.136;5.592;2022-12-05T16:30:56;24.30;;;11.13;;
23988;SDS011;12202;52.136;5.592;2022-12-05T16:33:22;19.23;;;10.80;;
23988;SDS011;12202;52.136;5.592;2022-12-05T16:35:48;21.25;;;11.88;;
23988;SDS011;12202;52.136;5.592;2022-12-05T16:38:25;21.33;;;11.73;;
23988;SDS011;12202;52.136;5.592;2022-12-05T16:40:55;23.33;;;11.00;;
23988;SDS011;12202;52.136;5.592;2022-12-05T16:45:47;23.35;;;10.88;;
23988;SDS011;12202;52.136;5.592;2022-12-05T16:50:50;17.52;;;10.43;;
23988;SDS011;12202;52.136;5.592;2022-12-05T16:53:17;18.48;;;10.35;;
23988;SDS011;12202;52.136;5.592;2022-12-05T16:55:46;18.17;;;10.00;;
23988;SDS011;12202;52.136;5.592;2022-12-05T16:58:16;17.13;;;10.32;;
23988;SDS011;12202;52.136;5.592;2022-12-05T17:00:42;18.55;;;11.90;;
23988;SDS011;12202;52.136;5.592;2022-12-05T17:03:10;21.83;;;11.07;;
23988;SDS011;12202;52.136;5.592;2022-12-05T17:05:36;22.48;;;11.13;;
23988;SDS011;12202;52.136;5.592;2022-12-05T17:08:02;21.17;;;12.43;;
23988;SDS011;12202;52.136;5.592;2022-12-05T17:10:28;31.55;;;14.75;;
23988;SDS011;12202;52.136;5.592;2022-12-05T17:12:54;31.65;;;16.02;;
23988;SDS011;12202;52.136;5.592;2022-12-05T17:15:20;32.13;;;17.38;;